sensor_id;sensor_type;location;lat;lon;timestamp;P1;durP1;ratioP1;P2;durP2;ratioP2
9324;SDS011;4701;51.566;6.776;2023-04-12T07:03:40;3.30;;;1.50;;
9324;SDS011;4701;51.566;6.776;2023-04-12T07:06:42;5.17;;;2.17;;
9324;SDS011;4701;51.566;6.776;2023-04-12T07:09:44;2.97;;;1.97;;
9324;SDS011;4701;51.566;6.776;2023-04-12T07:12:46;3.03;;;1.63;;
9324;SDS011;4701;51.566;6.776;2023-04-12T07:15:48;2.93;;;1.70;;
9324;SDS011;4701;51.566;6.776;2023-04-12T07:18:52;3.47;;;1.70;;
9324;SDS011;4701;51.566;6.776;2023-04-12T07:21:54;2.73;;;1.87;;
9324;SDS011;4701;51.566;6.776;2023-04-12T07:24:56;2.53;;;1.70;;
9324;SDS011;4701;51.566;6.776;2023-04-12T07:27:58;3.10;;;1.77;;
9324;SDS011;4701;51.566;6.776;2023-04-12T07:31:00;2.40;;;1.47;;
9324;SDS011;4701;51.566;6.776;2023-04-12T07:34:06;1.33;;;1.20;;
9324;SDS011;4701;51.566;6.776;2023-04-12T07:37:08;1.90;;;1.40;;
9324;SDS011;4701;51.566;6.776;2023-04-12T07:40:10;2.57;;;1.87;;
9324;SDS011;4701;51.566;6.776;2023-04-12T07:43:12;2.60;;;1.70;;
9324;SDS011;4701;51.566;6.776;2023-04-12T07:46:14;2.30;;;1.50;;
9324;SDS011;4701;51.566;6.776;2023-04-12T07:49:17;2.03;;;1.40;;
9324;SDS011;4701;51.566;6.776;2023-04-12T07:52:19;3.23;;;1.50;;
9324;SDS011;4701;51.566;6.776;2023-04-12T07:55:21;2.87;;;1.60;;
9324;SDS011;4701;51.566;6.776;2023-04-12T07:58:23;1.83;;;1.30;;
9324;SDS011;4701;51.566;6.776;2023-04-12T08:01:25;1.90;;;1.50;;
9324;SDS011;4701;51.566;6.776;2023-04-12T08:04:29;2.47;;;1.33;;
9324;SDS011;4701;51.566;6.776;2023-04-12T08:07:32;2.23;;;1.53;;
9324;SDS011;4701;51.566;6.776;2023-04-12T08:10:33;4.83;;;1.40;;
9324;SDS011;4701;51.566;6.776;2023-04-12T08:13:36;2.33;;;1.70;;
9324;SDS011;4701;51.566;6.776;2023-04-12T08:16:37;5.13;;;1.93;;
9324;SDS011;4701;51.566;6.776;2023-04-12T08:19:41;4.03;;;1.60;;
9324;SDS011;4701;51.566;6.776;2023-04-12T08:22:43;1.53;;;1.40;;
9324;SDS011;4701;51.566;6.776;2023-04-12T08:25:46;2.47;;;1.77;;
9324;SDS011;4701;51.566;6.776;2023-04-12T08:28:47;2.93;;;1.70;;
9324;SDS011;4701;51.566;6.776;2023-04-12T08:31:49;3.00;;;1.57;;
9324;SDS011;4701;51.566;6.776;2023-04-12T08:34:52;2.03;;;1.30;;
9324;SDS011;4701;51.566;6.776;2023-04-12T08:37:55;1.00;;;0.90;;
9324;SDS011;4701;51.566;6.776;2023-04-12T08:40:56;3.60;;;1.60;;
9324;SDS011;4701;51.566;6.776;2023-04-12T08:43:58;2.53;;;1.80;;
9324;SDS011;4701;51.566;6.776;2023-04-12T08:47:01;3.27;;;1.63;;
9324;SDS011;4701;51.566;6.776;2023-04-12T08:50:05;3.00;;;1.63;;
9324;SDS011;4701;51.566;6.776;2023-04-12T08:53:08;1.80;;;1.30;;
9324;SDS011;4701;51.566;6.776;2023-04-12T08:56:11;2.80;;;1.73;;
9324;SDS011;4701;51.566;6.776;2023-04-12T08:59:13;2.13;;;1.63;;
9324;SDS011;4701;51.566;6.776;2023-04-12T09:02:15;2.70;;;1.97;;
9324;SDS011;4701;51.566;6.776;2023-04-12T09:05:18;2.50;;;1.90;;
9324;SDS011;4701;51.566;6.776;2023-04-12T09:08:22;3.10;;;2.00;;
9324;SDS011;4701;51.566;6.776;2023-04-12T09:11:25;3.17;;;2.40;;
9324;SDS011;4701;51.566;6.776;2023-04-12T09:14:27;2.70;;;2.20;;
9324;SDS011;4701;51.566;6.776;2023-04-12T09:17:29;4.77;;;2.03;;
9324;SDS011;4701;51.566;6.776;2023-04-12T09:20:34;3.00;;;2.70;;
9324;SDS011;4701;51.566;6.776;2023-04-12T09:23:36;4.00;;;3.33;;
9324;SDS011;4701;51.566;6.776;2023-04-12T09:26:38;5.13;;;3.80;;
9324;SDS011;4701;51.566;6.776;2023-04-12T09:29:40;4.20;;;3.47;;
9324;SDS011;4701;51.566;6.776;2023-04-12T09:32:51;6.60;;;4.07;;
9324;SDS011;4701;51.566;6.776;2023-04-12T09:35:56;6.17;;;4.77;;
9324;SDS011;4701;51.566;6.776;2023-04-12T09:39:00;7.13;;;4.40;;
9324;SDS011;4701;51.566;6.776;2023-04-12T09:42:04;5.80;;;4.20;;
9324;SDS011;4701;51.566;6.776;2023-04-12T09:45:17;6.00;;;4.43;;
9324;SDS011;4701;51.566;6.776;2023-04-12T09:48:20;6.97;;;4.53;;
9324;SDS011;4701;51.566;6.776;2023-04-12T09:51:27;8.07;;;5.53;;
9324;SDS011;4701;51.566;6.776;2023-04-12T09:54:32;8.73;;;5.90;;
9324;SDS011;4701;51.566;6.776;2023-04-12T09:57:39;8.90;;;5.80;;
9324;SDS011;4701;51.566;6.776;2023-04-12T10:00:42;10.77;;;5.50;;
9324;SDS011;4701;51.566;6.776;2023-04-12T10:03:46;5.93;;;4.80;;
9324;SDS011;4701;51.566;6.776;2023-04-12T10:06:49;5.53;;;4.60;;
9324;SDS011;4701;51.566;6.776;2023-04-12T10:09:51;5.97;;;3.50;;
9324;SDS011;4701;51.566;6.776;2023-04-12T10:12:53;3.83;;;3.27;;
9324;SDS011;4701;51.566;6.776;2023-04-12T10:15:55;3.37;;;2.40;;
9324;SDS011;4701;51.566;6.776;2023-04-12T10:18:58;2.93;;;2.13;;
9324;SDS011;4701;51.566;6.776;2023-04-12T10:22:04;2.67;;;2.47;;
9324;SDS011;4701;51.566;6.776;2023-04-12T10:25:08;4.50;;;1.60;;
9324;SDS011;4701;51.566;6.776;2023-04-12T10:28:13;1.87;;;1.20;;
9324;SDS011;4701;51.566;6.776;2023-04-12T10:31:25;2.13;;;1.27;;
9324;SDS011;4701;51.566;6.776;2023-04-12T10:34:28;4.63;;;1.40;;
9324;SDS011;4701;51.566;6.776;2023-04-12T10:41:08;5.00;;;1.73;;
9324;SDS011;4701;51.566;6.776;2023-04-12T10:44:24;3.37;;;1.23;;
9324;SDS011;4701;51.566;6.776;2023-04-12T10:51:16;6.10;;;1.50;;
9324;SDS011;4701;51.566;6.776;2023-04-12T10:54:33;3.33;;;1.33;;
9324;SDS011;4701;51.566;6.776;2023-04-12T10:57:39;5.27;;;1.53;;
9324;SDS011;4701;51.566;6.776;2023-04-12T11:04:13;5.33;;;1.27;;
9324;SDS011;4701;51.566;6.776;2023-04-12T11:07:22;3.33;;;1.30;;
9324;SDS011;4701;51.566;6.776;2023-04-12T11:10:36;7.27;;;1.93;;
9324;SDS011;4701;51.566;6.776;2023-04-12T11:13:39;10.17;;;2.03;;
9324;SDS011;4701;51.566;6.776;2023-04-12T11:20:20;8.87;;;2.20;;
9324;SDS011;4701;51.566;6.776;2023-04-12T11:23:22;7.17;;;2.10;;
9324;SDS011;4701;51.566;6.776;2023-04-12T11:26:26;6.67;;;1.90;;
9324;SDS011;4701;51.566;6.776;2023-04-12T11:29:31;4.90;;;1.80;;
9324;SDS011;4701;51.566;6.776;2023-04-12T11:32:33;6.47;;;1.70;;
9324;SDS011;4701;51.566;6.776;2023-04-12T11:35:35;7.00;;;2.20;;
9324;SDS011;4701;51.566;6.776;2023-04-12T11:38:37;4.77;;;2.00;;
9324;SDS011;4701;51.566;6.776;2023-04-12T11:41:43;5.10;;;1.70;;
9324;SDS011;4701;51.566;6.776;2023-04-12T11:44:46;11.20;;;1.90;;
9324;SDS011;4701;51.566;6.776;2023-04-12T11:47:48;5.27;;;1.63;;
9324;SDS011;4701;51.566;6.776;2023-04-12T11:50:51;4.90;;;1.77;;
9324;SDS011;4701;51.566;6.776;2023-04-12T11:53:53;6.90;;;1.90;;
9324;SDS011;4701;51.566;6.776;2023-04-12T11:56:57;6.80;;;1.67;;
9324;SDS011;4701;51.566;6.776;2023-04-12T11:59:59;5.20;;;2.00;;
9324;SDS011;4701;51.566;6.776;2023-04-12T12:03:12;7.40;;;1.83;;
9324;SDS011;4701;51.566;6.776;2023-04-12T12:06:14;7.57;;;1.90;;
9324;SDS011;4701;51.566;6.776;2023-04-12T12:09:17;7.43;;;2.20;;
9324;SDS011;4701;51.566;6.776;2023-04-12T12:12:21;3.60;;;1.80;;
9324;SDS011;4701;51.566;6.776;2023-04-12T12:15:27;4.03;;;1.90;;
9324;SDS011;4701;51.566;6.776;2023-04-12T12:18:30;6.63;;;1.60;;
9324;SDS011;4701;51.566;6.776;2023-04-12T12:21:32;4.80;;;1.57;;
9324;SDS011;4701;51.566;6.776;2023-04-12T12:24:33;4.87;;;1.87;;
9324;SDS011;4701;51.566;6.776;2023-04-12T12:27:37;8.47;;;2.33;;
9324;SDS011;4701;51.566;6.776;2023-04-12T12:30:43;9.10;;;2.30;;
9324;SDS011;4701;51.566;6.776;2023-04-12T12:33:45;8.37;;;2.30;;
9324;SDS011;4701;51.566;6.776;2023-04-12T12:36:53;8.70;;;2.37;;
9324;SDS011;4701;51.566;6.776;2023-04-12T12:40:02;8.57;;;2.20;;
9324;SDS011;4701;51.566;6.776;2023-04-12T12:43:15;7.40;;;2.23;;
9324;SDS011;4701;51.566;6.776;2023-04-12T12:46:18;8.17;;;2.40;;
9324;SDS011;4701;51.566;6.776;2023-04-12T12:49:21;9.47;;;2.97;;
9324;SDS011;4701;51.566;6.776;2023-04-12T12:52:22;8.40;;;2.90;;
9324;SDS011;4701;51.566;6.776;2023-04-12T12:55:24;11.03;;;2.60;;
9324;SDS011;4701;51.566;6.776;2023-04-12T12:58:28;4.93;;;2.20;;
9324;SDS011;4701;51.566;6.776;2023-04-12T13:01:30;7.07;;;2.47;;
9324;SDS011;4701;51.566;6.776;2023-04-12T13:04:32;5.57;;;2.40;;
9324;SDS011;4701;51.566;6.776;2023-04-12T13:07:34;9.07;;;2.70;;
9324;SDS011;4701;51.566;6.776;2023-04-12T13:10:37;6.23;;;2.43;;
9324;SDS011;4701;51.566;6.776;2023-04-12T13:13:40;9.63;;;2.40;;
9324;SDS011;4701;51.566;6.776;2023-04-12T13:16:41;7.17;;;2.80;;
9324;SDS011;4701;51.566;6.776;2023-04-12T13:19:45;6.60;;;2.67;;
9324;SDS011;4701;51.566;6.776;2023-04-12T13:22:47;6.63;;;3.30;;
9324;SDS011;4701;51.566;6.776;2023-04-12T13:25:50;8.13;;;2.90;;
9324;SDS011;4701;51.566;6.776;2023-04-12T13:28:54;10.70;;;3.00;;
9324;SDS011;4701;51.566;6.776;2023-04-12T13:31:55;8.80;;;2.90;;
9324;SDS011;4701;51.566;6.776;2023-04-12T13:34:57;11.43;;;3.73;;
9324;SDS011;4701;51.566;6.776;2023-04-12T13:37:59;12.80;;;4.73;;
9324;SDS011;4701;51.566;6.776;2023-04-12T13:41:01;7.23;;;3.40;;
9324;SDS011;4701;51.566;6.776;2023-04-12T13:44:04;13.03;;;5.10;;
9324;SDS011;4701;51.566;6.776;2023-04-12T13:47:06;9.70;;;4.03;;
9324;SDS011;4701;51.566;6.776;2023-04-12T13:50:08;14.53;;;4.93;;
9324;SDS011;4701;51.566;6.776;2023-04-12T13:53:10;8.63;;;4.60;;
9324;SDS011;4701;51.566;6.776;2023-04-12T13:56:12;7.77;;;3.70;;
9324;SDS011;4701;51.566;6.776;2023-04-12T13:59:16;6.50;;;2.87;;
9324;SDS011;4701;51.566;6.776;2023-04-12T14:02:18;9.10;;;3.20;;
9324;SDS011;4701;51.566;6.776;2023-04-12T14:05:20;7.70;;;2.57;;
9324;SDS011;4701;51.566;6.776;2023-04-12T14:08:21;5.93;;;2.80;;
9324;SDS011;4701;51.566;6.776;2023-04-12T14:11:23;6.67;;;2.63;;
9324;SDS011;4701;51.566;6.776;2023-04-12T14:14:26;8.27;;;2.47;;
9324;SDS011;4701;51.566;6.776;2023-04-12T14:17:28;4.33;;;2.43;;
9324;SDS011;4701;51.566;6.776;2023-04-12T14:20:31;7.27;;;3.00;;
9324;SDS011;4701;51.566;6.776;2023-04-12T14:23:33;5.37;;;2.47;;
9324;SDS011;4701;51.566;6.776;2023-04-12T14:26:35;8.70;;;3.00;;
9324;SDS011;4701;51.566;6.776;2023-04-12T14:29:40;8.17;;;2.77;;
9324;SDS011;4701;51.566;6.776;2023-04-12T14:32:42;6.63;;;2.87;;
9324;SDS011;4701;51.566;6.776;2023-04-12T14:35:44;6.83;;;2.63;;
9324;SDS011;4701;51.566;6.776;2023-04-12T14:38:45;6.83;;;2.53;;
9324;SDS011;4701;51.566;6.776;2023-04-12T14:41:48;8.77;;;2.50;;
9324;SDS011;4701;51.566;6.776;2023-04-12T14:44:51;5.00;;;2.23;;
9324;SDS011;4701;51.566;6.776;2023-04-12T14:47:53;10.23;;;4.30;;
9324;SDS011;4701;51.566;6.776;2023-04-12T14:50:55;7.77;;;3.40;;
9324;SDS011;4701;51.566;6.776;2023-04-12T14:53:57;8.30;;;3.67;;
9324;SDS011;4701;51.566;6.776;2023-04-12T14:56:59;8.40;;;4.17;;
9324;SDS011;4701;51.566;6.776;2023-04-12T15:00:02;10.63;;;4.50;;
9324;SDS011;4701;51.566;6.776;2023-04-12T15:03:11;6.77;;;3.27;;
9324;SDS011;4701;51.566;6.776;2023-04-12T15:06:13;8.63;;;3.07;;
9324;SDS011;4701;51.566;6.776;2023-04-12T15:09:15;10.33;;;3.87;;
9324;SDS011;4701;51.566;6.776;2023-04-12T15:12:17;6.63;;;3.10;;
9324;SDS011;4701;51.566;6.776;2023-04-12T15:15:20;6.33;;;2.13;;
9324;SDS011;4701;51.566;6.776;2023-04-12T15:18:22;5.10;;;1.40;;
9324;SDS011;4701;51.566;6.776;2023-04-12T15:21:24;3.97;;;1.20;;
9324;SDS011;4701;51.566;6.776;2023-04-12T15:24:26;2.83;;;1.00;;
9324;SDS011;4701;51.566;6.776;2023-04-12T15:27:30;2.87;;;1.00;;
9324;SDS011;4701;51.566;6.776;2023-04-12T15:30:33;0.80;;;0.70;;
9324;SDS011;4701;51.566;6.776;2023-04-12T15:33:35;1.97;;;0.77;;
9324;SDS011;4701;51.566;6.776;2023-04-12T15:36:37;1.50;;;0.70;;
9324;SDS011;4701;51.566;6.776;2023-04-12T15:39:42;1.87;;;1.00;;
9324;SDS011;4701;51.566;6.776;2023-04-12T15:42:44;1.77;;;0.90;;
9324;SDS011;4701;51.566;6.776;2023-04-12T15:45:47;1.97;;;0.80;;
9324;SDS011;4701;51.566;6.776;2023-04-12T15:48:51;2.27;;;0.80;;
9324;SDS011;4701;51.566;6.776;2023-04-12T15:51:53;2.60;;;0.57;;
9324;SDS011;4701;51.566;6.776;2023-04-12T15:54:56;0.93;;;0.70;;
9324;SDS011;4701;51.566;6.776;2023-04-12T15:57:58;1.37;;;0.80;;
9324;SDS011;4701;51.566;6.776;2023-04-12T16:01:02;1.73;;;0.73;;
9324;SDS011;4701;51.566;6.776;2023-04-12T16:04:04;1.17;;;0.60;;
9324;SDS011;4701;51.566;6.776;2023-04-12T16:07:06;2.80;;;0.70;;
9324;SDS011;4701;51.566;6.776;2023-04-12T16:10:08;0.80;;;0.80;;
9324;SDS011;4701;51.566;6.776;2023-04-12T16:13:10;1.47;;;0.80;;
9324;SDS011;4701;51.566;6.776;2023-04-12T16:16:14;3.00;;;1.07;;
9324;SDS011;4701;51.566;6.776;2023-04-12T16:19:17;2.70;;;0.90;;
9324;SDS011;4701;51.566;6.776;2023-04-12T16:22:19;1.93;;;1.20;;
9324;SDS011;4701;51.566;6.776;2023-04-12T16:25:21;2.37;;;1.00;;
9324;SDS011;4701;51.566;6.776;2023-04-12T16:28:24;3.43;;;1.10;;
9324;SDS011;4701;51.566;6.776;2023-04-12T16:31:28;1.50;;;1.00;;
9324;SDS011;4701;51.566;6.776;2023-04-12T16:34:31;3.13;;;1.00;;
9324;SDS011;4701;51.566;6.776;2023-04-12T16:37:32;2.40;;;1.17;;
9324;SDS011;4701;51.566;6.776;2023-04-12T16:40:34;2.57;;;0.90;;
9324;SDS011;4701;51.566;6.776;2023-04-12T16:43:36;0.77;;;0.70;;
9324;SDS011;4701;51.566;6.776;2023-04-12T16:46:39;2.27;;;0.90;;
9324;SDS011;4701;51.566;6.776;2023-04-12T16:49:41;1.10;;;0.67;;
9324;SDS011;4701;51.566;6.776;2023-04-12T16:52:43;1.27;;;0.97;;
9324;SDS011;4701;51.566;6.776;2023-04-12T16:55:45;0.87;;;0.70;;
9324;SDS011;4701;51.566;6.776;2023-04-12T16:58:48;1.23;;;1.10;;
9324;SDS011;4701;51.566;6.776;2023-04-12T17:01:51;1.00;;;0.90;;
9324;SDS011;4701;51.566;6.776;2023-04-12T17:04:53;4.43;;;2.00;;
9324;SDS011;4701;51.566;6.776;2023-04-12T17:07:55;3.23;;;1.80;;
9324;SDS011;4701;51.566;6.776;2023-04-12T17:10:58;2.80;;;1.40;;
9324;SDS011;4701;51.566;6.776;2023-04-12T17:13:59;2.93;;;1.60;;
9324;SDS011;4701;51.566;6.776;2023-04-12T17:17:03;2.97;;;2.17;;
9324;SDS011;4701;51.566;6.776;2023-04-12T17:20:05;18.63;;;16.57;;
9324;SDS011;4701;51.566;6.776;2023-04-12T17:23:10;8.30;;;5.37;;
9324;SDS011;4701;51.566;6.776;2023-04-12T17:26:12;5.57;;;4.20;;
9324;SDS011;4701;51.566;6.776;2023-04-12T17:29:14;4.83;;;1.87;;
9324;SDS011;4701;51.566;6.776;2023-04-12T17:32:17;2.80;;;1.30;;
9324;SDS011;4701;51.566;6.776;2023-04-12T17:35:19;2.50;;;1.43;;
9324;SDS011;4701;51.566;6.776;2023-04-12T17:38:20;2.73;;;1.30;;
9324;SDS011;4701;51.566;6.776;2023-04-12T17:41:22;1.87;;;1.20;;
9324;SDS011;4701;51.566;6.776;2023-04-12T17:44:25;1.93;;;1.30;;
9324;SDS011;4701;51.566;6.776;2023-04-12T17:47:28;16.33;;;10.67;;
9324;SDS011;4701;51.566;6.776;2023-04-12T17:50:30;19.80;;;15.43;;
9324;SDS011;4701;51.566;6.776;2023-04-12T17:53:32;8.03;;;7.20;;
9324;SDS011;4701;51.566;6.776;2023-04-12T17:56:34;6.73;;;4.27;;
9324;SDS011;4701;51.566;6.776;2023-04-12T17:59:35;3.37;;;2.30;;
9324;SDS011;4701;51.566;6.776;2023-04-12T18:02:39;3.57;;;1.50;;
9324;SDS011;4701;51.566;6.776;2023-04-12T18:05:41;1.83;;;1.40;;
9324;SDS011;4701;51.566;6.776;2023-04-12T18:08:45;2.70;;;1.80;;
9324;SDS011;4701;51.566;6.776;2023-04-12T18:11:47;1.83;;;1.50;;
9324;SDS011;4701;51.566;6.776;2023-04-12T18:14:49;2.07;;;1.50;;
9324;SDS011;4701;51.566;6.776;2023-04-12T18:17:52;1.50;;;1.37;;
9324;SDS011;4701;51.566;6.776;2023-04-12T18:20:54;2.57;;;1.37;;
9324;SDS011;4701;51.566;6.776;2023-04-12T18:23:55;2.30;;;1.77;;
9324;SDS011;4701;51.566;6.776;2023-04-12T18:26:57;2.80;;;1.73;;
9324;SDS011;4701;51.566;6.776;2023-04-12T18:30:00;2.87;;;2.30;;
9324;SDS011;4701;51.566;6.776;2023-04-12T18:33:04;3.93;;;2.20;;
9324;SDS011;4701;51.566;6.776;2023-04-12T18:36:07;3.53;;;2.60;;
9324;SDS011;4701;51.566;6.776;2023-04-12T18:39:09;3.53;;;2.80;;
9324;SDS011;4701;51.566;6.776;2023-04-12T18:42:11;4.40;;;2.40;;
9324;SDS011;4701;51.566;6.776;2023-04-12T18:45:13;3.10;;;2.37;;
9324;SDS011;4701;51.566;6.776;2023-04-12T18:48:16;2.30;;;1.80;;
9324;SDS011;4701;51.566;6.776;2023-04-12T18:51:18;3.60;;;2.10;;
9324;SDS011;4701;51.566;6.776;2023-04-12T18:54:21;4.80;;;2.03;;
9324;SDS011;4701;51.566;6.776;2023-04-12T18:57:24;2.57;;;2.30;;
9324;SDS011;4701;51.566;6.776;2023-04-12T19:00:26;3.90;;;3.27;;
9324;SDS011;4701;51.566;6.776;2023-04-12T19:03:29;4.03;;;3.00;;
9324;SDS011;4701;51.566;6.776;2023-04-12T19:06:32;4.73;;;3.47;;
9324;SDS011;4701;51.566;6.776;2023-04-12T19:09:34;5.70;;;3.20;;
9324;SDS011;4701;51.566;6.776;2023-04-12T19:12:36;5.38;;;3.70;;
9324;SDS011;4701;51.566;6.776;2023-04-12T19:15:38;5.17;;;2.90;;
9324;SDS011;4701;51.566;6.776;2023-04-12T19:18:44;3.17;;;2.60;;
9324;SDS011;4701;51.566;6.776;2023-04-12T19:21:46;3.63;;;2.50;;
9324;SDS011;4701;51.566;6.776;2023-04-12T19:24:48;3.50;;;2.70;;
9324;SDS011;4701;51.566;6.776;2023-04-12T19:27:50;2.57;;;2.27;;
9324;SDS011;4701;51.566;6.776;2023-04-12T19:30:52;3.43;;;2.03;;
9324;SDS011;4701;51.566;6.776;2023-04-12T19:33:56;3.23;;;2.60;;
9324;SDS011;4701;51.566;6.776;2023-04-12T19:36:57;2.73;;;2.20;;
9324;SDS011;4701;51.566;6.776;2023-04-12T19:39:59;3.77;;;2.50;;
9324;SDS011;4701;51.566;6.776;2023-04-12T19:43:01;4.60;;;2.50;;
9324;SDS011;4701;51.566;6.776;2023-04-12T19:46:04;4.00;;;2.40;;
9324;SDS011;4701;51.566;6.776;2023-04-12T19:49:08;3.67;;;2.30;;
9324;SDS011;4701;51.566;6.776;2023-04-12T19:52:09;2.87;;;2.53;;
9324;SDS011;4701;51.566;6.776;2023-04-12T19:55:14;3.17;;;2.60;;
9324;SDS011;4701;51.566;6.776;2023-04-12T19:58:16;2.77;;;2.33;;
9324;SDS011;4701;51.566;6.776;2023-04-12T20:01:18;4.23;;;2.67;;
9324;SDS011;4701;51.566;6.776;2023-04-12T20:04:22;5.37;;;2.80;;
9324;SDS011;4701;51.566;6.776;2023-04-12T20:07:24;3.43;;;2.20;;
9324;SDS011;4701;51.566;6.776;2023-04-12T20:10:26;3.70;;;2.33;;
9324;SDS011;4701;51.566;6.776;2023-04-12T20:13:28;4.10;;;2.80;;
9324;SDS011;4701;51.566;6.776;2023-04-12T20:16:30;2.60;;;2.00;;
9324;SDS011;4701;51.566;6.776;2023-04-12T20:19:33;3.47;;;2.10;;
9324;SDS011;4701;51.566;6.776;2023-04-12T20:22:40;5.27;;;1.83;;
9324;SDS011;4701;51.566;6.776;2023-04-12T20:25:45;2.93;;;1.80;;
9324;SDS011;4701;51.566;6.776;2023-04-12T20:28:48;2.73;;;1.53;;
9324;SDS011;4701;51.566;6.776;2023-04-12T20:31:50;3.03;;;1.73;;
9324;SDS011;4701;51.566;6.776;2023-04-12T20:34:54;2.93;;;1.70;;
9324;SDS011;4701;51.566;6.776;2023-04-12T20:37:57;2.60;;;1.67;;
9324;SDS011;4701;51.566;6.776;2023-04-12T20:40:59;3.60;;;1.80;;
9324;SDS011;4701;51.566;6.776;2023-04-12T20:44:01;3.07;;;1.80;;
9324;SDS011;4701;51.566;6.776;2023-04-12T20:47:03;2.60;;;1.50;;
9324;SDS011;4701;51.566;6.776;2023-04-12T20:50:07;3.07;;;1.53;;
9324;SDS011;4701;51.566;6.776;2023-04-12T20:53:09;2.30;;;1.80;;
9324;SDS011;4701;51.566;6.776;2023-04-12T20:56:14;3.37;;;1.70;;
9324;SDS011;4701;51.566;6.776;2023-04-12T20:59:17;4.70;;;1.67;;
